メインページ
METAR-TAF:

METAR-TAF

空港 :

アントファガスタ, チリ

セロ・モレノ国際空港

緯度: 23-26S, 経度: 070-26W, 海抜: 135m

現時点の気象観測

当レポートは13分前の19:00(UTC)に作成
南/南西の風 15kt
気温 22°C
湿度 69%
気圧 1013 hPa
視程10km以上
高度2500ftの雲はほとんどない

METAR: SCFA 251900Z 20015KT 9999 FEW025 22/16 Q1013 NOSIG

時間: 16:13 (19:13 UTC)

予報

当レポートは2時間33分前の16:40(UTC)に作成
予報は25日の 18時(UTC)から 26日の 18時(UTC)まで有効
南西の風 12kt
視程10km以上
高度2500ftの雲はほとんどない
26日の 00時(UTC)から 26日の 02時(UTC)まで徐々に
の風 4kt
視程10km以上
1,500メートル以下は雲なし、積乱雲なし
26日の 07時(UTC)から 26日の 09時(UTC)まで徐々に
東/北東の風 4kt
26日の 16時(UTC)から 26日の 18時(UTC)まで徐々に
南西の風 12kt
高度2500ftの雲はほとんどない

TAF: SCFA 251640Z 2518/2618 22012KT 9999 FEW025 TX24/2518Z TN18/2606Z BECMG 2600/2602 19004KT CAVOK BECMG 2607/2609 07004KT BECMG 2616/2618 22012KT FEW025

4,000以上の空港の気象観測と天気予報(METAR報とTAF報)

利用可能な観測所は地図上に黄色い丸と赤い丸で示す。

丸の上にカーソルを重ねると観測所名を参照できる。

次にクリックすると気象観測と天気予報を参照できる。

マップの切り替え:黒色「×」印の緑ボタンをクリックして拡大、「-」印の緑ボタンをクリックして縮小、緑色の三角印をクリックして隣りの地図に切り替え


METAR-TAF: